sensor_id;sensor_type;location;lat;lon;timestamp;P1;durP1;ratioP1;P2;durP2;ratioP2
20870;SDS011;10595;51.218;3.452;2022-08-19T00:00:14;46.57;;;29.60;;
20870;SDS011;10595;51.218;3.452;2022-08-19T00:01:05;42.17;;;28.87;;
20870;SDS011;10595;51.218;3.452;2022-08-19T00:01:59;45.50;;;29.23;;
20870;SDS011;10595;51.218;3.452;2022-08-19T00:02:50;44.60;;;29.00;;
20870;SDS011;10595;51.218;3.452;2022-08-19T00:03:42;40.77;;;28.50;;
20870;SDS011;10595;51.218;3.452;2022-08-19T00:04:34;47.03;;;29.77;;
20870;SDS011;10595;51.218;3.452;2022-08-19T00:05:27;44.93;;;29.13;;
20870;SDS011;10595;51.218;3.452;2022-08-19T00:06:23;42.37;;;28.23;;
20870;SDS011;10595;51.218;3.452;2022-08-19T00:07:15;43.10;;;26.70;;
20870;SDS011;10595;51.218;3.452;2022-08-19T00:08:06;40.47;;;27.40;;
20870;SDS011;10595;51.218;3.452;2022-08-19T00:08:58;44.40;;;28.00;;
20870;SDS011;10595;51.218;3.452;2022-08-19T00:09:50;40.27;;;27.33;;
20870;SDS011;10595;51.218;3.452;2022-08-19T00:10:42;44.93;;;27.53;;
20870;SDS011;10595;51.218;3.452;2022-08-19T00:11:33;40.87;;;26.60;;
20870;SDS011;10595;51.218;3.452;2022-08-19T00:12:26;45.80;;;28.13;;
20870;SDS011;10595;51.218;3.452;2022-08-19T00:13:17;42.80;;;27.83;;
20870;SDS011;10595;51.218;3.452;2022-08-19T00:14:10;39.77;;;27.07;;
20870;SDS011;10595;51.218;3.452;2022-08-19T00:15:01;40.13;;;26.87;;
20870;SDS011;10595;51.218;3.452;2022-08-19T00:15:54;38.80;;;25.77;;
20870;SDS011;10595;51.218;3.452;2022-08-19T00:16:46;39.30;;;25.53;;
20870;SDS011;10595;51.218;3.452;2022-08-19T00:17:39;41.53;;;26.53;;
20870;SDS011;10595;51.218;3.452;2022-08-19T00:18:33;38.97;;;25.73;;
20870;SDS011;10595;51.218;3.452;2022-08-19T00:19:25;38.47;;;26.43;;
20870;SDS011;10595;51.218;3.452;2022-08-19T00:20:17;39.00;;;26.60;;
20870;SDS011;10595;51.218;3.452;2022-08-19T00:21:09;35.97;;;24.60;;
20870;SDS011;10595;51.218;3.452;2022-08-19T00:22:00;40.43;;;26.20;;
20870;SDS011;10595;51.218;3.452;2022-08-19T00:22:52;38.10;;;26.47;;
20870;SDS011;10595;51.218;3.452;2022-08-19T00:23:43;38.17;;;25.87;;
20870;SDS011;10595;51.218;3.452;2022-08-19T00:24:36;39.83;;;26.40;;
20870;SDS011;10595;51.218;3.452;2022-08-19T00:25:28;38.17;;;25.70;;
20870;SDS011;10595;51.218;3.452;2022-08-19T00:26:19;40.77;;;26.93;;
20870;SDS011;10595;51.218;3.452;2022-08-19T00:27:10;37.53;;;25.43;;
20870;SDS011;10595;51.218;3.452;2022-08-19T00:28:03;41.50;;;26.90;;
20870;SDS011;10595;51.218;3.452;2022-08-19T00:28:55;39.33;;;25.33;;
20870;SDS011;10595;51.218;3.452;2022-08-19T00:29:46;40.47;;;26.43;;
20870;SDS011;10595;51.218;3.452;2022-08-19T00:30:37;40.30;;;26.07;;
20870;SDS011;10595;51.218;3.452;2022-08-19T00:31:29;42.90;;;26.80;;
20870;SDS011;10595;51.218;3.452;2022-08-19T00:32:21;39.27;;;26.67;;
20870;SDS011;10595;51.218;3.452;2022-08-19T00:33:14;42.70;;;26.57;;
20870;SDS011;10595;51.218;3.452;2022-08-19T00:34:06;38.37;;;25.20;;
20870;SDS011;10595;51.218;3.452;2022-08-19T00:34:57;38.67;;;25.13;;
20870;SDS011;10595;51.218;3.452;2022-08-19T00:35:49;39.80;;;26.33;;
20870;SDS011;10595;51.218;3.452;2022-08-19T00:36:39;35.47;;;25.53;;
20870;SDS011;10595;51.218;3.452;2022-08-19T00:37:31;41.70;;;25.47;;
20870;SDS011;10595;51.218;3.452;2022-08-19T00:38:26;38.33;;;24.17;;
20870;SDS011;10595;51.218;3.452;2022-08-19T00:39:19;37.90;;;25.77;;
20870;SDS011;10595;51.218;3.452;2022-08-19T00:40:11;37.00;;;24.53;;
20870;SDS011;10595;51.218;3.452;2022-08-19T00:41:04;38.27;;;24.93;;
20870;SDS011;10595;51.218;3.452;2022-08-19T00:41:56;38.57;;;23.73;;
20870;SDS011;10595;51.218;3.452;2022-08-19T00:42:49;40.17;;;25.43;;
20870;SDS011;10595;51.218;3.452;2022-08-19T00:43:50;42.50;;;25.47;;
20870;SDS011;10595;51.218;3.452;2022-08-19T00:44:48;37.43;;;24.47;;
20870;SDS011;10595;51.218;3.452;2022-08-19T00:45:40;40.23;;;24.37;;
20870;SDS011;10595;51.218;3.452;2022-08-19T00:46:34;37.73;;;24.10;;
20870;SDS011;10595;51.218;3.452;2022-08-19T00:47:27;36.70;;;24.17;;
20870;SDS011;10595;51.218;3.452;2022-08-19T00:48:21;39.27;;;25.47;;
20870;SDS011;10595;51.218;3.452;2022-08-19T00:49:14;35.80;;;23.73;;
20870;SDS011;10595;51.218;3.452;2022-08-19T00:50:08;34.07;;;23.43;;
20870;SDS011;10595;51.218;3.452;2022-08-19T00:51:00;36.67;;;23.03;;
20870;SDS011;10595;51.218;3.452;2022-08-19T00:51:53;39.30;;;24.27;;
20870;SDS011;10595;51.218;3.452;2022-08-19T00:52:46;35.73;;;22.70;;
20870;SDS011;10595;51.218;3.452;2022-08-19T00:53:38;34.73;;;23.60;;
20870;SDS011;10595;51.218;3.452;2022-08-19T00:54:30;37.00;;;23.07;;
20870;SDS011;10595;51.218;3.452;2022-08-19T00:55:23;33.73;;;21.97;;
20870;SDS011;10595;51.218;3.452;2022-08-19T00:56:14;35.63;;;22.90;;
20870;SDS011;10595;51.218;3.452;2022-08-19T00:57:07;37.00;;;23.80;;
20870;SDS011;10595;51.218;3.452;2022-08-19T00:58:01;40.23;;;22.00;;
20870;SDS011;10595;51.218;3.452;2022-08-19T00:58:54;34.17;;;22.03;;
20870;SDS011;10595;51.218;3.452;2022-08-19T00:59:46;34.73;;;23.83;;
20870;SDS011;10595;51.218;3.452;2022-08-19T01:00:38;36.40;;;23.43;;
20870;SDS011;10595;51.218;3.452;2022-08-19T01:01:29;33.53;;;22.70;;
20870;SDS011;10595;51.218;3.452;2022-08-19T01:02:20;33.70;;;22.17;;
20870;SDS011;10595;51.218;3.452;2022-08-19T01:03:13;36.90;;;21.40;;
20870;SDS011;10595;51.218;3.452;2022-08-19T01:04:07;37.63;;;23.40;;
20870;SDS011;10595;51.218;3.452;2022-08-19T01:04:58;37.23;;;22.17;;
20870;SDS011;10595;51.218;3.452;2022-08-19T01:05:50;33.60;;;22.17;;
20870;SDS011;10595;51.218;3.452;2022-08-19T01:06:41;37.43;;;24.73;;
20870;SDS011;10595;51.218;3.452;2022-08-19T01:07:33;36.20;;;21.93;;
20870;SDS011;10595;51.218;3.452;2022-08-19T01:08:24;34.17;;;22.23;;
20870;SDS011;10595;51.218;3.452;2022-08-19T01:09:16;37.03;;;23.67;;
20870;SDS011;10595;51.218;3.452;2022-08-19T01:10:10;35.97;;;23.00;;
20870;SDS011;10595;51.218;3.452;2022-08-19T01:11:02;41.20;;;23.80;;
20870;SDS011;10595;51.218;3.452;2022-08-19T01:11:52;34.70;;;21.57;;
20870;SDS011;10595;51.218;3.452;2022-08-19T01:12:44;38.63;;;23.00;;
20870;SDS011;10595;51.218;3.452;2022-08-19T01:13:36;38.47;;;23.93;;
20870;SDS011;10595;51.218;3.452;2022-08-19T01:14:28;40.60;;;23.40;;
20870;SDS011;10595;51.218;3.452;2022-08-19T01:15:21;34.30;;;23.13;;
20870;SDS011;10595;51.218;3.452;2022-08-19T01:16:13;36.23;;;22.17;;
20870;SDS011;10595;51.218;3.452;2022-08-19T01:17:05;36.90;;;22.30;;
20870;SDS011;10595;51.218;3.452;2022-08-19T01:17:57;39.07;;;21.87;;
20870;SDS011;10595;51.218;3.452;2022-08-19T01:18:50;33.33;;;21.77;;
20870;SDS011;10595;51.218;3.452;2022-08-19T01:19:44;36.33;;;22.30;;
20870;SDS011;10595;51.218;3.452;2022-08-19T01:20:36;32.00;;;21.30;;
20870;SDS011;10595;51.218;3.452;2022-08-19T01:21:29;35.97;;;22.20;;
20870;SDS011;10595;51.218;3.452;2022-08-19T01:22:27;34.83;;;22.50;;
20870;SDS011;10595;51.218;3.452;2022-08-19T01:23:19;35.10;;;22.63;;
20870;SDS011;10595;51.218;3.452;2022-08-19T01:24:10;36.83;;;23.43;;
20870;SDS011;10595;51.218;3.452;2022-08-19T01:25:01;38.27;;;22.57;;
20870;SDS011;10595;51.218;3.452;2022-08-19T01:25:52;34.73;;;22.83;;
20870;SDS011;10595;51.218;3.452;2022-08-19T01:26:45;34.93;;;22.83;;
20870;SDS011;10595;51.218;3.452;2022-08-19T01:27:39;40.43;;;23.63;;
20870;SDS011;10595;51.218;3.452;2022-08-19T01:28:31;38.90;;;23.20;;
20870;SDS011;10595;51.218;3.452;2022-08-19T01:29:21;33.43;;;23.57;;
20870;SDS011;10595;51.218;3.452;2022-08-19T01:30:16;41.87;;;24.10;;
20870;SDS011;10595;51.218;3.452;2022-08-19T01:31:09;36.03;;;23.03;;
20870;SDS011;10595;51.218;3.452;2022-08-19T01:32:01;36.43;;;24.00;;
20870;SDS011;10595;51.218;3.452;2022-08-19T01:32:52;36.53;;;23.20;;
20870;SDS011;10595;51.218;3.452;2022-08-19T01:33:44;39.73;;;23.67;;
20870;SDS011;10595;51.218;3.452;2022-08-19T01:34:34;36.47;;;23.77;;
20870;SDS011;10595;51.218;3.452;2022-08-19T01:35:30;40.13;;;24.97;;
20870;SDS011;10595;51.218;3.452;2022-08-19T01:36:22;36.50;;;23.80;;
20870;SDS011;10595;51.218;3.452;2022-08-19T01:37:15;39.00;;;23.20;;
20870;SDS011;10595;51.218;3.452;2022-08-19T01:38:08;39.43;;;24.73;;
20870;SDS011;10595;51.218;3.452;2022-08-19T01:39:01;41.53;;;24.47;;
20870;SDS011;10595;51.218;3.452;2022-08-19T01:39:51;44.37;;;25.30;;
20870;SDS011;10595;51.218;3.452;2022-08-19T01:40:42;39.77;;;23.60;;
20870;SDS011;10595;51.218;3.452;2022-08-19T01:41:34;38.23;;;24.13;;
20870;SDS011;10595;51.218;3.452;2022-08-19T01:42:24;44.07;;;25.17;;
20870;SDS011;10595;51.218;3.452;2022-08-19T01:43:16;39.83;;;23.97;;
20870;SDS011;10595;51.218;3.452;2022-08-19T01:44:09;40.10;;;23.87;;
20870;SDS011;10595;51.218;3.452;2022-08-19T01:45:00;40.10;;;23.37;;
20870;SDS011;10595;51.218;3.452;2022-08-19T01:45:51;40.40;;;24.17;;
20870;SDS011;10595;51.218;3.452;2022-08-19T01:46:43;37.50;;;24.40;;
20870;SDS011;10595;51.218;3.452;2022-08-19T01:47:34;44.83;;;25.27;;
20870;SDS011;10595;51.218;3.452;2022-08-19T01:48:26;41.63;;;24.60;;
20870;SDS011;10595;51.218;3.452;2022-08-19T01:49:21;38.77;;;23.77;;
20870;SDS011;10595;51.218;3.452;2022-08-19T01:50:13;43.53;;;24.83;;
20870;SDS011;10595;51.218;3.452;2022-08-19T01:51:03;39.10;;;24.27;;
20870;SDS011;10595;51.218;3.452;2022-08-19T01:51:55;39.90;;;24.00;;
20870;SDS011;10595;51.218;3.452;2022-08-19T01:52:45;38.37;;;24.17;;
20870;SDS011;10595;51.218;3.452;2022-08-19T01:53:38;42.50;;;23.60;;
20870;SDS011;10595;51.218;3.452;2022-08-19T01:54:29;41.73;;;23.97;;
20870;SDS011;10595;51.218;3.452;2022-08-19T01:55:21;37.90;;;23.53;;
20870;SDS011;10595;51.218;3.452;2022-08-19T01:56:14;45.53;;;24.43;;
20870;SDS011;10595;51.218;3.452;2022-08-19T01:57:06;38.50;;;23.60;;
20870;SDS011;10595;51.218;3.452;2022-08-19T01:57:58;40.10;;;23.57;;
20870;SDS011;10595;51.218;3.452;2022-08-19T01:58:50;42.17;;;24.90;;
20870;SDS011;10595;51.218;3.452;2022-08-19T01:59:42;37.10;;;22.53;;
20870;SDS011;10595;51.218;3.452;2022-08-19T02:00:34;36.67;;;22.40;;
20870;SDS011;10595;51.218;3.452;2022-08-19T02:01:25;41.83;;;23.23;;
20870;SDS011;10595;51.218;3.452;2022-08-19T02:02:16;41.23;;;23.20;;
20870;SDS011;10595;51.218;3.452;2022-08-19T02:03:07;38.13;;;23.13;;
20870;SDS011;10595;51.218;3.452;2022-08-19T02:04:01;43.73;;;24.03;;
20870;SDS011;10595;51.218;3.452;2022-08-19T02:05:00;37.27;;;22.17;;
20870;SDS011;10595;51.218;3.452;2022-08-19T02:05:53;40.30;;;22.57;;
20870;SDS011;10595;51.218;3.452;2022-08-19T02:06:45;37.37;;;22.57;;
20870;SDS011;10595;51.218;3.452;2022-08-19T02:07:36;34.83;;;21.03;;
20870;SDS011;10595;51.218;3.452;2022-08-19T02:08:27;37.10;;;22.07;;
20870;SDS011;10595;51.218;3.452;2022-08-19T02:09:19;40.83;;;22.77;;
20870;SDS011;10595;51.218;3.452;2022-08-19T02:10:12;36.23;;;22.40;;
20870;SDS011;10595;51.218;3.452;2022-08-19T02:11:03;35.57;;;22.20;;
20870;SDS011;10595;51.218;3.452;2022-08-19T02:11:55;38.03;;;22.20;;
20870;SDS011;10595;51.218;3.452;2022-08-19T02:12:45;37.20;;;23.17;;
20870;SDS011;10595;51.218;3.452;2022-08-19T02:13:37;37.43;;;22.07;;
20870;SDS011;10595;51.218;3.452;2022-08-19T02:14:27;38.60;;;22.37;;
20870;SDS011;10595;51.218;3.452;2022-08-19T02:15:22;36.70;;;21.20;;
20870;SDS011;10595;51.218;3.452;2022-08-19T02:16:12;36.50;;;21.23;;
20870;SDS011;10595;51.218;3.452;2022-08-19T02:17:04;35.47;;;21.90;;
20870;SDS011;10595;51.218;3.452;2022-08-19T02:17:54;40.33;;;21.50;;
20870;SDS011;10595;51.218;3.452;2022-08-19T02:18:46;38.37;;;21.73;;
20870;SDS011;10595;51.218;3.452;2022-08-19T02:19:38;35.57;;;19.90;;
20870;SDS011;10595;51.218;3.452;2022-08-19T02:20:30;33.33;;;20.27;;
20870;SDS011;10595;51.218;3.452;2022-08-19T02:21:21;34.80;;;21.50;;
20870;SDS011;10595;51.218;3.452;2022-08-19T02:22:13;36.33;;;22.47;;
20870;SDS011;10595;51.218;3.452;2022-08-19T02:23:03;35.33;;;20.83;;
20870;SDS011;10595;51.218;3.452;2022-08-19T02:23:55;35.07;;;21.20;;
20870;SDS011;10595;51.218;3.452;2022-08-19T02:24:47;38.73;;;21.40;;
20870;SDS011;10595;51.218;3.452;2022-08-19T02:25:39;32.10;;;20.43;;
20870;SDS011;10595;51.218;3.452;2022-08-19T02:26:31;32.27;;;19.47;;
20870;SDS011;10595;51.218;3.452;2022-08-19T02:27:23;32.47;;;20.73;;
20870;SDS011;10595;51.218;3.452;2022-08-19T02:28:13;32.90;;;19.93;;
20870;SDS011;10595;51.218;3.452;2022-08-19T02:29:05;34.03;;;20.67;;
20870;SDS011;10595;51.218;3.452;2022-08-19T02:29:55;34.03;;;20.10;;
20870;SDS011;10595;51.218;3.452;2022-08-19T02:30:47;33.07;;;19.93;;
20870;SDS011;10595;51.218;3.452;2022-08-19T02:31:39;38.10;;;19.50;;
20870;SDS011;10595;51.218;3.452;2022-08-19T02:32:29;34.47;;;20.23;;
20870;SDS011;10595;51.218;3.452;2022-08-19T02:33:21;36.23;;;20.33;;
20870;SDS011;10595;51.218;3.452;2022-08-19T02:34:11;34.77;;;20.67;;
20870;SDS011;10595;51.218;3.452;2022-08-19T02:35:03;35.17;;;19.87;;
20870;SDS011;10595;51.218;3.452;2022-08-19T02:35:54;39.00;;;21.60;;
20870;SDS011;10595;51.218;3.452;2022-08-19T02:36:47;33.97;;;19.77;;
20870;SDS011;10595;51.218;3.452;2022-08-19T02:37:38;33.67;;;20.17;;
20870;SDS011;10595;51.218;3.452;2022-08-19T02:38:46;29.63;;;18.60;;
20870;SDS011;10595;51.218;3.452;2022-08-19T02:39:38;33.20;;;20.87;;
20870;SDS011;10595;51.218;3.452;2022-08-19T02:40:30;31.40;;;20.57;;
20870;SDS011;10595;51.218;3.452;2022-08-19T02:41:22;36.13;;;20.27;;
20870;SDS011;10595;51.218;3.452;2022-08-19T02:42:14;34.17;;;20.90;;
20870;SDS011;10595;51.218;3.452;2022-08-19T02:43:05;28.97;;;18.43;;
20870;SDS011;10595;51.218;3.452;2022-08-19T02:43:57;32.87;;;18.83;;
20870;SDS011;10595;51.218;3.452;2022-08-19T02:44:49;35.03;;;20.93;;
20870;SDS011;10595;51.218;3.452;2022-08-19T02:45:40;37.47;;;19.97;;
20870;SDS011;10595;51.218;3.452;2022-08-19T02:46:32;29.70;;;19.03;;
20870;SDS011;10595;51.218;3.452;2022-08-19T02:47:23;38.10;;;20.50;;
20870;SDS011;10595;51.218;3.452;2022-08-19T02:48:14;35.37;;;21.33;;
20870;SDS011;10595;51.218;3.452;2022-08-19T02:49:07;36.30;;;19.30;;
20870;SDS011;10595;51.218;3.452;2022-08-19T02:50:00;36.27;;;19.83;;
20870;SDS011;10595;51.218;3.452;2022-08-19T02:50:51;35.30;;;19.27;;
20870;SDS011;10595;51.218;3.452;2022-08-19T02:51:45;41.90;;;21.20;;
20870;SDS011;10595;51.218;3.452;2022-08-19T02:52:36;33.53;;;20.17;;
20870;SDS011;10595;51.218;3.452;2022-08-19T02:53:28;34.63;;;20.47;;
20870;SDS011;10595;51.218;3.452;2022-08-19T02:54:18;34.60;;;19.13;;
20870;SDS011;10595;51.218;3.452;2022-08-19T02:55:10;37.70;;;20.33;;
20870;SDS011;10595;51.218;3.452;2022-08-19T02:56:05;34.43;;;20.33;;
20870;SDS011;10595;51.218;3.452;2022-08-19T02:56:57;32.87;;;19.70;;
20870;SDS011;10595;51.218;3.452;2022-08-19T02:57:47;34.23;;;20.40;;
20870;SDS011;10595;51.218;3.452;2022-08-19T02:58:39;39.37;;;20.47;;
20870;SDS011;10595;51.218;3.452;2022-08-19T02:59:30;32.60;;;20.00;;
20870;SDS011;10595;51.218;3.452;2022-08-19T03:00:21;32.67;;;19.53;;
20870;SDS011;10595;51.218;3.452;2022-08-19T03:01:19;30.00;;;18.97;;
20870;SDS011;10595;51.218;3.452;2022-08-19T03:02:11;29.43;;;18.90;;
20870;SDS011;10595;51.218;3.452;2022-08-19T03:03:02;33.47;;;18.77;;
20870;SDS011;10595;51.218;3.452;2022-08-19T03:03:53;34.90;;;19.43;;
20870;SDS011;10595;51.218;3.452;2022-08-19T03:04:44;31.23;;;18.83;;
20870;SDS011;10595;51.218;3.452;2022-08-19T03:05:36;32.20;;;19.57;;
20870;SDS011;10595;51.218;3.452;2022-08-19T03:06:27;34.87;;;19.97;;
20870;SDS011;10595;51.218;3.452;2022-08-19T03:07:18;31.60;;;18.70;;
20870;SDS011;10595;51.218;3.452;2022-08-19T03:08:09;34.87;;;20.80;;
20870;SDS011;10595;51.218;3.452;2022-08-19T03:09:02;32.93;;;18.50;;
20870;SDS011;10595;51.218;3.452;2022-08-19T03:09:52;28.23;;;17.73;;
20870;SDS011;10595;51.218;3.452;2022-08-19T03:10:46;35.63;;;18.10;;
20870;SDS011;10595;51.218;3.452;2022-08-19T03:11:38;30.70;;;17.30;;
20870;SDS011;10595;51.218;3.452;2022-08-19T03:12:30;29.43;;;16.53;;
20870;SDS011;10595;51.218;3.452;2022-08-19T03:13:20;30.67;;;18.53;;
20870;SDS011;10595;51.218;3.452;2022-08-19T03:14:13;32.47;;;18.57;;
20870;SDS011;10595;51.218;3.452;2022-08-19T03:15:05;28.47;;;17.03;;
20870;SDS011;10595;51.218;3.452;2022-08-19T03:15:57;34.97;;;17.10;;
20870;SDS011;10595;51.218;3.452;2022-08-19T03:16:49;32.40;;;18.60;;
20870;SDS011;10595;51.218;3.452;2022-08-19T03:17:40;26.93;;;16.77;;
20870;SDS011;10595;51.218;3.452;2022-08-19T03:18:31;29.90;;;18.03;;
20870;SDS011;10595;51.218;3.452;2022-08-19T03:19:22;30.10;;;17.47;;
20870;SDS011;10595;51.218;3.452;2022-08-19T03:20:13;32.53;;;18.40;;
20870;SDS011;10595;51.218;3.452;2022-08-19T03:21:05;35.93;;;18.40;;
20870;SDS011;10595;51.218;3.452;2022-08-19T03:21:55;32.10;;;17.93;;
20870;SDS011;10595;51.218;3.452;2022-08-19T03:22:47;32.63;;;17.13;;
20870;SDS011;10595;51.218;3.452;2022-08-19T03:23:37;31.70;;;17.83;;
20870;SDS011;10595;51.218;3.452;2022-08-19T03:24:29;29.83;;;17.33;;
20870;SDS011;10595;51.218;3.452;2022-08-19T03:25:20;32.30;;;17.03;;
20870;SDS011;10595;51.218;3.452;2022-08-19T03:26:12;29.33;;;17.43;;
20870;SDS011;10595;51.218;3.452;2022-08-19T03:27:05;25.03;;;16.13;;
20870;SDS011;10595;51.218;3.452;2022-08-19T03:27:57;28.17;;;17.30;;
20870;SDS011;10595;51.218;3.452;2022-08-19T03:28:48;30.77;;;17.63;;
20870;SDS011;10595;51.218;3.452;2022-08-19T03:29:39;30.33;;;16.80;;
20870;SDS011;10595;51.218;3.452;2022-08-19T03:30:30;32.07;;;18.07;;
20870;SDS011;10595;51.218;3.452;2022-08-19T03:31:22;26.73;;;16.37;;
20870;SDS011;10595;51.218;3.452;2022-08-19T03:32:13;27.67;;;16.63;;
20870;SDS011;10595;51.218;3.452;2022-08-19T03:33:04;32.07;;;16.60;;
20870;SDS011;10595;51.218;3.452;2022-08-19T03:33:55;25.23;;;16.27;;
20870;SDS011;10595;51.218;3.452;2022-08-19T03:34:47;25.07;;;14.90;;
20870;SDS011;10595;51.218;3.452;2022-08-19T03:35:38;28.10;;;15.53;;
20870;SDS011;10595;51.218;3.452;2022-08-19T03:36:29;28.67;;;17.20;;
20870;SDS011;10595;51.218;3.452;2022-08-19T03:37:21;25.13;;;15.93;;
20870;SDS011;10595;51.218;3.452;2022-08-19T03:38:12;29.03;;;16.73;;
20870;SDS011;10595;51.218;3.452;2022-08-19T03:39:04;32.73;;;16.73;;
20870;SDS011;10595;51.218;3.452;2022-08-19T03:39:54;28.53;;;17.27;;
20870;SDS011;10595;51.218;3.452;2022-08-19T03:40:45;33.73;;;17.47;;
20870;SDS011;10595;51.218;3.452;2022-08-19T03:41:37;31.03;;;17.27;;
20870;SDS011;10595;51.218;3.452;2022-08-19T03:42:29;32.17;;;16.73;;
20870;SDS011;10595;51.218;3.452;2022-08-19T03:43:21;35.17;;;16.87;;
20870;SDS011;10595;51.218;3.452;2022-08-19T03:44:11;32.03;;;17.93;;
20870;SDS011;10595;51.218;3.452;2022-08-19T03:45:03;30.00;;;16.40;;
20870;SDS011;10595;51.218;3.452;2022-08-19T03:45:59;32.03;;;17.43;;
20870;SDS011;10595;51.218;3.452;2022-08-19T03:46:52;29.87;;;16.23;;
20870;SDS011;10595;51.218;3.452;2022-08-19T03:47:43;31.83;;;16.27;;
20870;SDS011;10595;51.218;3.452;2022-08-19T03:48:35;24.97;;;15.53;;
20870;SDS011;10595;51.218;3.452;2022-08-19T03:49:28;29.10;;;16.93;;
20870;SDS011;10595;51.218;3.452;2022-08-19T03:50:19;26.27;;;16.20;;
20870;SDS011;10595;51.218;3.452;2022-08-19T03:51:14;27.97;;;15.87;;
20870;SDS011;10595;51.218;3.452;2022-08-19T03:52:06;29.97;;;16.03;;
20870;SDS011;10595;51.218;3.452;2022-08-19T03:52:58;23.20;;;14.27;;
20870;SDS011;10595;51.218;3.452;2022-08-19T03:53:51;28.43;;;16.30;;
20870;SDS011;10595;51.218;3.452;2022-08-19T03:54:41;25.10;;;15.30;;
20870;SDS011;10595;51.218;3.452;2022-08-19T03:55:33;27.83;;;17.20;;
20870;SDS011;10595;51.218;3.452;2022-08-19T03:56:23;22.30;;;14.07;;
20870;SDS011;10595;51.218;3.452;2022-08-19T03:57:16;25.80;;;15.27;;
20870;SDS011;10595;51.218;3.452;2022-08-19T03:58:07;25.63;;;16.37;;
20870;SDS011;10595;51.218;3.452;2022-08-19T03:59:01;28.00;;;15.67;;
20870;SDS011;10595;51.218;3.452;2022-08-19T03:59:51;30.17;;;17.10;;
20870;SDS011;10595;51.218;3.452;2022-08-19T04:00:43;34.27;;;16.37;;
20870;SDS011;10595;51.218;3.452;2022-08-19T04:01:34;28.07;;;16.10;;
20870;SDS011;10595;51.218;3.452;2022-08-19T04:02:26;27.87;;;15.90;;
20870;SDS011;10595;51.218;3.452;2022-08-19T04:03:17;26.80;;;16.10;;
20870;SDS011;10595;51.218;3.452;2022-08-19T04:04:10;31.87;;;16.40;;
20870;SDS011;10595;51.218;3.452;2022-08-19T04:05:01;30.17;;;16.00;;
20870;SDS011;10595;51.218;3.452;2022-08-19T04:05:52;29.50;;;17.30;;
20870;SDS011;10595;51.218;3.452;2022-08-19T04:06:43;29.40;;;16.60;;
20870;SDS011;10595;51.218;3.452;2022-08-19T04:07:37;26.47;;;15.90;;
20870;SDS011;10595;51.218;3.452;2022-08-19T04:08:27;26.37;;;16.07;;
20870;SDS011;10595;51.218;3.452;2022-08-19T04:09:19;29.63;;;16.73;;
20870;SDS011;10595;51.218;3.452;2022-08-19T04:10:11;23.50;;;16.07;;
20870;SDS011;10595;51.218;3.452;2022-08-19T04:11:06;26.53;;;15.50;;
20870;SDS011;10595;51.218;3.452;2022-08-19T04:11:56;24.03;;;14.83;;
20870;SDS011;10595;51.218;3.452;2022-08-19T04:12:48;26.53;;;16.00;;
20870;SDS011;10595;51.218;3.452;2022-08-19T04:13:41;26.13;;;15.77;;
20870;SDS011;10595;51.218;3.452;2022-08-19T04:14:33;25.43;;;16.30;;
20870;SDS011;10595;51.218;3.452;2022-08-19T04:15:24;29.23;;;15.80;;
20870;SDS011;10595;51.218;3.452;2022-08-19T04:16:17;27.90;;;15.20;;
20870;SDS011;10595;51.218;3.452;2022-08-19T04:17:08;28.33;;;15.27;;
20870;SDS011;10595;51.218;3.452;2022-08-19T04:17:59;22.97;;;14.80;;
20870;SDS011;10595;51.218;3.452;2022-08-19T04:18:50;29.50;;;15.27;;
20870;SDS011;10595;51.218;3.452;2022-08-19T04:19:42;30.77;;;16.40;;
20870;SDS011;10595;51.218;3.452;2022-08-19T04:20:33;27.17;;;16.03;;
20870;SDS011;10595;51.218;3.452;2022-08-19T04:21:25;28.50;;;15.57;;
20870;SDS011;10595;51.218;3.452;2022-08-19T04:22:16;22.47;;;14.80;;
20870;SDS011;10595;51.218;3.452;2022-08-19T04:23:08;29.30;;;15.93;;
20870;SDS011;10595;51.218;3.452;2022-08-19T04:23:59;31.47;;;16.70;;
20870;SDS011;10595;51.218;3.452;2022-08-19T04:24:50;29.17;;;15.77;;
20870;SDS011;10595;51.218;3.452;2022-08-19T04:25:42;25.87;;;15.00;;
20870;SDS011;10595;51.218;3.452;2022-08-19T04:26:34;22.90;;;14.57;;
20870;SDS011;10595;51.218;3.452;2022-08-19T04:27:25;25.07;;;16.03;;
20870;SDS011;10595;51.218;3.452;2022-08-19T04:28:17;24.93;;;15.13;;
20870;SDS011;10595;51.218;3.452;2022-08-19T04:29:10;26.20;;;14.90;;
20870;SDS011;10595;51.218;3.452;2022-08-19T04:30:02;23.60;;;14.53;;
20870;SDS011;10595;51.218;3.452;2022-08-19T04:30:53;23.83;;;15.13;;
20870;SDS011;10595;51.218;3.452;2022-08-19T04:31:45;25.30;;;15.73;;
20870;SDS011;10595;51.218;3.452;2022-08-19T04:32:37;26.27;;;14.50;;
20870;SDS011;10595;51.218;3.452;2022-08-19T04:33:28;26.30;;;15.43;;
20870;SDS011;10595;51.218;3.452;2022-08-19T04:34:19;33.83;;;16.30;;
20870;SDS011;10595;51.218;3.452;2022-08-19T04:35:12;26.80;;;15.40;;
20870;SDS011;10595;51.218;3.452;2022-08-19T04:36:03;25.37;;;15.30;;
20870;SDS011;10595;51.218;3.452;2022-08-19T04:36:55;26.33;;;15.50;;
20870;SDS011;10595;51.218;3.452;2022-08-19T04:37:46;26.57;;;14.97;;
20870;SDS011;10595;51.218;3.452;2022-08-19T04:38:37;28.87;;;15.27;;
20870;SDS011;10595;51.218;3.452;2022-08-19T04:39:30;28.53;;;15.17;;
20870;SDS011;10595;51.218;3.452;2022-08-19T04:40:39;29.93;;;14.83;;
20870;SDS011;10595;51.218;3.452;2022-08-19T04:41:48;25.07;;;14.37;;
20870;SDS011;10595;51.218;3.452;2022-08-19T04:43:09;25.57;;;14.97;;
20870;SDS011;10595;51.218;3.452;2022-08-19T04:44:05;26.43;;;13.97;;
20870;SDS011;10595;51.218;3.452;2022-08-19T04:44:58;22.67;;;14.00;;
20870;SDS011;10595;51.218;3.452;2022-08-19T04:45:50;28.27;;;16.43;;
20870;SDS011;10595;51.218;3.452;2022-08-19T04:46:41;26.03;;;14.80;;
20870;SDS011;10595;51.218;3.452;2022-08-19T04:47:33;26.57;;;15.33;;
20870;SDS011;10595;51.218;3.452;2022-08-19T04:48:23;28.03;;;15.77;;
20870;SDS011;10595;51.218;3.452;2022-08-19T04:49:17;24.47;;;14.90;;
20870;SDS011;10595;51.218;3.452;2022-08-19T04:50:08;27.43;;;15.37;;
20870;SDS011;10595;51.218;3.452;2022-08-19T04:51:05;27.67;;;15.10;;
20870;SDS011;10595;51.218;3.452;2022-08-19T04:52:04;30.10;;;15.07;;
20870;SDS011;10595;51.218;3.452;2022-08-19T04:52:56;28.67;;;15.30;;
20870;SDS011;10595;51.218;3.452;2022-08-19T04:53:46;26.70;;;14.33;;
20870;SDS011;10595;51.218;3.452;2022-08-19T04:54:39;28.17;;;14.63;;
20870;SDS011;10595;51.218;3.452;2022-08-19T04:55:30;28.10;;;15.73;;
20870;SDS011;10595;51.218;3.452;2022-08-19T04:56:22;29.00;;;15.60;;
20870;SDS011;10595;51.218;3.452;2022-08-19T04:57:16;26.33;;;15.13;;
20870;SDS011;10595;51.218;3.452;2022-08-19T04:58:07;31.70;;;15.67;;
20870;SDS011;10595;51.218;3.452;2022-08-19T04:58:58;26.90;;;16.17;;
20870;SDS011;10595;51.218;3.452;2022-08-19T04:59:53;32.73;;;16.27;;
20870;SDS011;10595;51.218;3.452;2022-08-19T05:00:46;29.43;;;15.93;;
20870;SDS011;10595;51.218;3.452;2022-08-19T05:01:37;29.70;;;15.13;;
20870;SDS011;10595;51.218;3.452;2022-08-19T05:02:29;29.57;;;15.63;;
20870;SDS011;10595;51.218;3.452;2022-08-19T05:03:22;32.17;;;15.20;;
20870;SDS011;10595;51.218;3.452;2022-08-19T05:04:14;32.43;;;15.73;;
20870;SDS011;10595;51.218;3.452;2022-08-19T05:05:08;25.80;;;15.87;;